Time;durP1;ratioP1;P1;durP2;ratioP2;P2;SDS_P1;SDS_P2;PMS_P1;PMS_P2;Temp;Humidity;BMP_temperature;BMP_pressure;BME280_temperature;BME280_humidity;BME280_pressure;Samples;Min_cycle;Max_cycle;Signal;HPM_P1;HPM_P2
2022/10/01 00:00:10;;;;;;;;;;;17.20;44.60;;;;;;5035986;28;20326;-89
2022/10/01 00:02:36;;;;;;;;;;;17.20;44.70;;;;;;5038961;28;19988;-90
2022/10/01 00:05:02;;;;;;;;;;;17.20;44.70;;;;;;5037435;28;19928;-89
2022/10/01 00:07:27;;;;;;;;;;;17.20;44.80;;;;;;5034984;28;19912;-89
2022/10/01 00:09:53;;;;;;;;;;;17.10;44.80;;;;;;5029605;28;19962;-87
2022/10/01 00:12:18;;;;;;;;;;;17.10;44.80;;;;;;5033048;28;19967;-87
2022/10/01 00:14:44;;;;;;;;;;;17.20;44.80;;;;;;5012914;28;19917;-87
2022/10/01 00:17:10;;;;;;;;;;;17.20;44.80;;;;;;5032526;28;19971;-89
2022/10/01 00:19:35;;;;;;;;;;;17.20;44.90;;;;;;5016168;28;20351;-88
2022/10/01 00:22:01;;;;;;;;;;;17.20;44.90;;;;;;5015501;28;19910;-87
2022/10/01 00:24:27;;;;;;;;;;;17.20;44.80;;;;;;5030835;28;19925;-92
2022/10/01 00:26:52;;;;;;;;;;;17.20;44.80;;;;;;5032812;28;20014;-88
2022/10/01 00:29:18;;;;;;;;;;;17.20;44.80;;;;;;5017226;28;19921;-90
2022/10/01 00:31:43;;;;;;;;;;;17.30;44.70;;;;;;5032518;28;19909;-85
2022/10/01 00:34:11;;;;;;;;;;;17.30;44.70;;;;;;5033730;28;19956;-88
2022/10/01 00:36:36;;;;;;;;;;;17.30;44.70;;;;;;5015377;28;19920;-92
2022/10/01 00:39:02;;;;;;;;;;;17.30;44.60;;;;;;5032340;28;20364;-89
2022/10/01 00:41:29;;;;;;;;;;;17.30;44.50;;;;;;5009532;28;20323;-87
2022/10/01 00:43:56;;;;;;;;;;;17.40;44.50;;;;;;5011805;28;19931;-86
2022/10/01 00:46:27;;;;;;;;;;;17.40;44.40;;;;;;5028517;28;19936;-91
2022/10/01 00:49:05;;;;;;;;;;;17.40;44.40;;;;;;5013334;28;19913;-91
2022/10/01 00:51:32;;;;;;;;;;;17.50;44.40;;;;;;5029690;28;19917;-87
2022/10/01 00:54:03;;;;;;;;;;;17.50;44.20;;;;;;5011971;28;19926;-87
2022/10/01 00:56:29;;;;;;;;;;;17.60;44.20;;;;;;5028449;28;19913;-91
2022/10/01 00:58:55;;;;;;;;;;;17.50;44.10;;;;;;5012301;28;19913;-88
2022/10/01 01:01:23;;;;;;;;;;;17.60;44.10;;;;;;5028021;28;20514;-87
2022/10/01 01:03:48;;;;;;;;;;;17.60;44.00;;;;;;5033048;28;19931;-87
2022/10/01 01:06:14;;;;;;;;;;;17.70;44.00;;;;;;5011728;28;19916;-92
2022/10/01 01:08:41;;;;;;;;;;;17.70;43.90;;;;;;5012696;28;20020;-86
2022/10/01 01:11:36;;;;;;;;;;;17.70;43.80;;;;;;5018217;28;19929;-85
2022/10/01 01:14:18;;;;;;;;;;;17.70;43.80;;;;;;5018532;28;19913;-91
2022/10/01 01:16:48;;;;;;;;;;;17.70;43.80;;;;;;5005490;28;19913;-90
2022/10/01 01:19:24;;;;;;;;;;;17.80;43.80;;;;;;5026493;28;19913;-90
2022/10/01 01:21:52;;;;;;;;;;;17.80;43.70;;;;;;5029878;28;19913;-87
2022/10/01 01:24:21;;;;;;;;;;;17.80;43.70;;;;;;5030277;28;19960;-88
2022/10/01 01:26:48;;;;;;;;;;;17.90;43.70;;;;;;5029560;28;19913;-91
2022/10/01 01:29:17;;;;;;;;;;;17.90;43.70;;;;;;5009233;28;19917;-91
2022/10/01 01:31:45;;;;;;;;;;;17.90;43.60;;;;;;5027848;28;20557;-91
2022/10/01 01:34:11;;;;;;;;;;;18.00;43.60;;;;;;5010336;28;19917;-86
2022/10/01 01:36:39;;;;;;;;;;;18.00;43.50;;;;;;5022134;28;19920;-86
2022/10/01 01:39:07;;;;;;;;;;;18.00;43.50;;;;;;5033630;28;19921;-89
2022/10/01 01:41:34;;;;;;;;;;;18.00;43.40;;;;;;5031208;28;19924;-90
2022/10/01 01:44:01;;;;;;;;;;;18.00;43.40;;;;;;5032274;28;19913;-89
2022/10/01 01:46:30;;;;;;;;;;;18.10;43.40;;;;;;5015934;28;19967;-88
2022/10/01 01:48:58;;;;;;;;;;;18.00;43.40;;;;;;5015871;28;19944;-89
2022/10/01 01:51:30;;;;;;;;;;;18.10;43.40;;;;;;5016915;28;19923;-87
2022/10/01 01:53:55;;;;;;;;;;;18.10;43.30;;;;;;5014731;28;19915;-91
2022/10/01 01:56:21;;;;;;;;;;;18.10;43.30;;;;;;5032987;28;20020;-86
2022/10/01 01:58:46;;;;;;;;;;;18.10;43.20;;;;;;5032363;28;19916;-92
2022/10/01 02:01:36;;;;;;;;;;;18.10;43.30;;;;;;5013132;28;19966;-90
2022/10/01 02:04:03;;;;;;;;;;;18.20;43.20;;;;;;5008870;28;20457;-90
2022/10/01 02:06:34;;;;;;;;;;;18.20;43.10;;;;;;5021517;28;19913;-90
2022/10/01 02:09:07;;;;;;;;;;;18.20;43.20;;;;;;5033844;28;19948;-89
2022/10/01 02:11:36;;;;;;;;;;;18.30;43.20;;;;;;5033823;28;19917;-88
2022/10/01 02:14:27;;;;;;;;;;;18.30;43.10;;;;;;5018492;28;19913;-88
2022/10/01 02:17:07;;;;;;;;;;;18.30;43.10;;;;;;5025732;28;19923;-87
2022/10/01 02:19:43;;;;;;;;;;;18.30;43.10;;;;;;5013864;28;19921;-86
2022/10/01 02:22:11;;;;;;;;;;;18.30;43.10;;;;;;5014542;28;19920;-87
2022/10/01 02:24:43;;;;;;;;;;;18.30;43.10;;;;;;5026630;28;20015;-87
2022/10/01 02:27:12;;;;;;;;;;;18.30;43.30;;;;;;5014160;28;19920;-86
2022/10/01 02:29:39;;;;;;;;;;;18.30;43.50;;;;;;5015858;28;19988;-89
2022/10/01 02:32:05;;;;;;;;;;;18.30;43.80;;;;;;5013877;28;19988;-86
2022/10/01 02:34:31;;;;;;;;;;;18.20;45.00;;;;;;5014661;28;19924;-89
2022/10/01 02:36:58;;;;;;;;;;;17.90;47.70;;;;;;5014770;28;19917;-89
2022/10/01 02:39:26;;;;;;;;;;;17.60;50.90;;;;;;5013202;28;20470;-88
2022/10/01 02:41:52;;;;;;;;;;;17.30;53.50;;;;;;5018611;28;19940;-88
2022/10/01 02:44:25;;;;;;;;;;;17.10;54.70;;;;;;5017565;28;19925;-87
2022/10/01 02:47:20;;;;;;;;;;;16.80;55.80;;;;;;5007215;28;20021;-86
2022/10/01 02:49:46;;;;;;;;;;;16.70;56.90;;;;;;5016298;28;19938;-89
2022/10/01 02:52:41;;;;;;;;;;;16.50;57.80;;;;;;5031199;28;20271;-86
2022/10/01 02:55:09;;;;;;;;;;;16.40;58.70;;;;;;4973641;28;19928;-88
2022/10/01 02:57:35;;;;;;;;;;;16.30;59.40;;;;;;5016401;28;19909;-87
2022/10/01 03:00:05;;;;;;;;;;;16.20;59.90;;;;;;5027668;28;20012;-87
2022/10/01 03:02:31;;;;;;;;;;;16.10;60.30;;;;;;5028470;28;19913;-87
2022/10/01 03:04:57;;;;;;;;;;;16.00;60.70;;;;;;5015352;28;19925;-88
2022/10/01 03:07:23;;;;;;;;;;;15.90;61.10;;;;;;5015722;28;20425;-87
2022/10/01 03:09:49;;;;;;;;;;;15.80;61.30;;;;;;5005875;28;19943;-86
2022/10/01 03:12:16;;;;;;;;;;;15.80;61.70;;;;;;5030404;28;19913;-88
2022/10/01 03:14:42;;;;;;;;;;;15.80;62.10;;;;;;5014991;28;20470;-85
2022/10/01 03:17:08;;;;;;;;;;;15.80;62.50;;;;;;5011593;28;19913;-86
2022/10/01 03:19:33;;;;;;;;;;;15.80;62.70;;;;;;4998973;28;19924;-87
2022/10/01 03:21:59;;;;;;;;;;;15.80;62.90;;;;;;5033434;28;20418;-88
2022/10/01 03:24:24;;;;;;;;;;;15.80;63.10;;;;;;5033349;28;19925;-87
2022/10/01 03:26:50;;;;;;;;;;;15.80;63.20;;;;;;5031381;28;19925;-86
2022/10/01 03:29:16;;;;;;;;;;;15.80;63.30;;;;;;5031400;28;20381;-87
2022/10/01 03:31:41;;;;;;;;;;;15.70;63.50;;;;;;5033456;28;19913;-87
2022/10/01 03:34:07;;;;;;;;;;;15.80;63.60;;;;;;5032408;28;19913;-86
2022/10/01 03:36:32;;;;;;;;;;;15.80;63.60;;;;;;5031951;28;20014;-87
2022/10/01 03:38:58;;;;;;;;;;;15.70;63.80;;;;;;5032892;28;20368;-86
2022/10/01 03:41:24;;;;;;;;;;;15.70;63.90;;;;;;5020081;28;19909;-88
2022/10/01 03:43:49;;;;;;;;;;;15.70;64.00;;;;;;5019041;28;19920;-88
2022/10/01 03:46:15;;;;;;;;;;;15.70;64.10;;;;;;5031411;28;20384;-86
2022/10/01 03:48:41;;;;;;;;;;;15.70;64.30;;;;;;5014377;28;20010;-87
2022/10/01 03:51:06;;;;;;;;;;;15.70;64.20;;;;;;5032691;28;19921;-87
2022/10/01 03:53:31;;;;;;;;;;;15.70;64.30;;;;;;5014453;28;19921;-86
2022/10/01 03:55:58;;;;;;;;;;;15.70;64.40;;;;;;5030481;28;19917;-86
2022/10/01 03:58:23;;;;;;;;;;;15.70;64.50;;;;;;5027719;28;20296;-87
2022/10/01 04:00:49;;;;;;;;;;;15.70;64.50;;;;;;5031054;28;19917;-86
2022/10/01 04:03:15;;;;;;;;;;;15.70;64.60;;;;;;5011418;28;19936;-86
2022/10/01 04:05:41;;;;;;;;;;;15.70;64.60;;;;;;5013365;28;19925;-87
2022/10/01 04:08:07;;;;;;;;;;;15.70;64.60;;;;;;5028687;28;19917;-87
2022/10/01 04:10:32;;;;;;;;;;;15.70;64.80;;;;;;5026711;28;20007;-87
2022/10/01 04:12:58;;;;;;;;;;;15.70;64.70;;;;;;5029638;28;19913;-88
2022/10/01 04:15:24;;;;;;;;;;;15.70;64.70;;;;;;5010119;28;20098;-87
2022/10/01 04:17:50;;;;;;;;;;;15.70;64.80;;;;;;5029306;28;19914;-88
2022/10/01 04:20:15;;;;;;;;;;;15.70;65.00;;;;;;5012168;28;19944;-88
2022/10/01 04:22:41;;;;;;;;;;;15.70;64.90;;;;;;5015178;28;19953;-88
2022/10/01 04:25:09;;;;;;;;;;;15.70;65.00;;;;;;5009747;28;19929;-86
2022/10/01 04:27:39;;;;;;;;;;;15.70;65.00;;;;;;5028379;28;20541;-88
2022/10/01 04:30:05;;;;;;;;;;;15.70;64.90;;;;;;5028855;28;19971;-87
2022/10/01 04:32:30;;;;;;;;;;;15.60;65.30;;;;;;5021278;28;19918;-86
2022/10/01 04:34:56;;;;;;;;;;;15.60;65.20;;;;;;5007346;28;19921;-86
2022/10/01 04:37:22;;;;;;;;;;;15.70;65.20;;;;;;5027753;28;20020;-86
2022/10/01 04:39:47;;;;;;;;;;;15.70;65.20;;;;;;5010387;28;20039;-86
2022/10/01 04:42:13;;;;;;;;;;;15.70;65.10;;;;;;5028798;28;19917;-88
2022/10/01 04:44:39;;;;;;;;;;;15.70;65.20;;;;;;5031339;28;19936;-86
2022/10/01 04:47:04;;;;;;;;;;;15.70;65.30;;;;;;5029779;28;20008;-88
2022/10/01 04:49:31;;;;;;;;;;;15.80;65.20;;;;;;5010629;28;20384;-87
2022/10/01 04:51:57;;;;;;;;;;;15.80;65.10;;;;;;5011626;28;19920;-87
2022/10/01 04:54:23;;;;;;;;;;;15.80;65.10;;;;;;5028584;28;19936;-86
2022/10/01 04:56:48;;;;;;;;;;;15.80;65.10;;;;;;5009807;28;20390;-86
2022/10/01 04:59:14;;;;;;;;;;;15.80;65.20;;;;;;5011112;28;19958;-85
2022/10/01 05:01:40;;;;;;;;;;;15.70;65.40;;;;;;5029249;28;20035;-86
2022/10/01 05:04:07;;;;;;;;;;;15.80;65.20;;;;;;5027135;28;19925;-85
2022/10/01 05:06:33;;;;;;;;;;;15.80;65.30;;;;;;5031677;28;19917;-85
2022/10/01 05:08:58;;;;;;;;;;;15.90;65.20;;;;;;5028938;28;19917;-86
2022/10/01 05:11:24;;;;;;;;;;;15.80;65.10;;;;;;5011165;28;20030;-87
2022/10/01 05:13:50;;;;;;;;;;;15.80;65.20;;;;;;5011903;28;19936;-86
2022/10/01 05:16:15;;;;;;;;;;;15.80;65.20;;;;;;5009548;28;19921;-87
2022/10/01 05:18:41;;;;;;;;;;;15.90;65.20;;;;;;5007255;28;19996;-86
2022/10/01 05:21:07;;;;;;;;;;;15.90;65.20;;;;;;5009957;28;20053;-86
2022/10/01 05:23:32;;;;;;;;;;;15.90;65.20;;;;;;5025759;28;20028;-89
2022/10/01 05:25:58;;;;;;;;;;;15.80;65.40;;;;;;5027566;28;19948;-88
2022/10/01 05:28:25;;;;;;;;;;;15.90;65.20;;;;;;5010218;28;19921;-87
2022/10/01 05:30:51;;;;;;;;;;;16.00;65.20;;;;;;5027949;28;19932;-87
2022/10/01 05:33:16;;;;;;;;;;;16.00;65.20;;;;;;5026202;28;19917;-88
2022/10/01 05:35:43;;;;;;;;;;;15.90;65.20;;;;;;5028429;28;20019;-86
2022/10/01 05:38:08;;;;;;;;;;;15.90;65.30;;;;;;5008804;28;20476;-85
2022/10/01 05:40:34;;;;;;;;;;;15.90;65.40;;;;;;5010365;28;19917;-88
2022/10/01 05:43:01;;;;;;;;;;;15.90;65.50;;;;;;5007733;28;19913;-88
2022/10/01 05:45:27;;;;;;;;;;;15.90;65.40;;;;;;5010277;28;19929;-86
2022/10/01 05:47:57;;;;;;;;;;;15.90;65.50;;;;;;5029019;28;19920;-88
2022/10/01 05:50:24;;;;;;;;;;;16.00;65.50;;;;;;5027971;28;19932;-87
2022/10/01 05:52:51;;;;;;;;;;;16.00;65.60;;;;;;5006507;28;19917;-88
2022/10/01 05:55:17;;;;;;;;;;;16.00;65.60;;;;;;5006704;28;19967;-86
2022/10/01 05:57:42;;;;;;;;;;;16.00;65.50;;;;;;5009393;28;19952;-87
2022/10/01 06:00:08;;;;;;;;;;;16.10;65.50;;;;;;5009177;28;19957;-85
2022/10/01 06:02:34;;;;;;;;;;;16.10;65.60;;;;;;5023241;28;19924;-88
2022/10/01 06:04:59;;;;;;;;;;;16.10;65.60;;;;;;5022891;28;20376;-88
2022/10/01 06:07:25;;;;;;;;;;;16.00;65.80;;;;;;5023575;28;19971;-88
2022/10/01 06:09:50;;;;;;;;;;;16.10;65.60;;;;;;5014357;28;19917;-88
2022/10/01 06:12:16;;;;;;;;;;;16.10;65.60;;;;;;5009274;28;20408;-87
2022/10/01 06:14:42;;;;;;;;;;;16.20;65.60;;;;;;5010882;28;19940;-85
2022/10/01 06:17:07;;;;;;;;;;;16.20;65.60;;;;;;5010055;28;19913;-86
2022/10/01 06:19:33;;;;;;;;;;;16.20;65.50;;;;;;5010562;28;19921;-85
2022/10/01 06:21:58;;;;;;;;;;;16.30;65.60;;;;;;5010841;28;19913;-85
2022/10/01 06:24:25;;;;;;;;;;;16.30;65.60;;;;;;5018031;28;19939;-85
2022/10/01 06:26:51;;;;;;;;;;;16.30;65.60;;;;;;5023333;28;19923;-85
2022/10/01 06:29:16;;;;;;;;;;;16.30;65.60;;;;;;5023748;28;19980;-86
2022/10/01 06:31:42;;;;;;;;;;;16.30;65.80;;;;;;5027373;28;19967;-85
2022/10/01 06:34:07;;;;;;;;;;;16.30;65.70;;;;;;5025996;28;19921;-85
2022/10/01 06:36:33;;;;;;;;;;;16.20;65.90;;;;;;5027665;28;19952;-86
2022/10/01 06:38:58;;;;;;;;;;;16.30;65.90;;;;;;5026910;28;19913;-87
2022/10/01 06:41:24;;;;;;;;;;;16.20;65.90;;;;;;5028057;28;19921;-86
2022/10/01 06:43:49;;;;;;;;;;;16.30;65.90;;;;;;5026336;28;19917;-89
2022/10/01 06:46:15;;;;;;;;;;;16.30;65.90;;;;;;5008792;28;20395;-90
2022/10/01 06:48:41;;;;;;;;;;;16.30;65.90;;;;;;5003716;28;19913;-89
2022/10/01 06:51:07;;;;;;;;;;;16.40;66.00;;;;;;5029914;28;19962;-89
2022/10/01 06:53:33;;;;;;;;;;;16.40;66.00;;;;;;5011940;28;19921;-87
2022/10/01 06:56:06;;;;;;;;;;;16.50;65.80;;;;;;5033859;28;19962;-89
2022/10/01 06:58:31;;;;;;;;;;;16.50;65.90;;;;;;5015520;28;19917;-87
2022/10/01 07:00:58;;;;;;;;;;;16.50;65.90;;;;;;5014485;28;20379;-87
2022/10/01 07:03:24;;;;;;;;;;;16.60;65.90;;;;;;5013304;28;19929;-89
2022/10/01 07:05:50;;;;;;;;;;;16.60;66.00;;;;;;5031751;28;19925;-89
2022/10/01 07:08:16;;;;;;;;;;;16.70;66.10;;;;;;5028148;28;19936;-87
2022/10/01 07:10:43;;;;;;;;;;;16.70;66.10;;;;;;5031411;28;19924;-86
2022/10/01 07:13:09;;;;;;;;;;;16.70;66.20;;;;;;5013652;28;19924;-88
2022/10/01 07:15:35;;;;;;;;;;;16.80;66.00;;;;;;5008721;28;19964;-86
2022/10/01 07:18:01;;;;;;;;;;;16.70;66.00;;;;;;5012365;28;19945;-88
2022/10/01 07:20:26;;;;;;;;;;;16.80;66.10;;;;;;5013112;28;19928;-87
2022/10/01 07:22:56;;;;;;;;;;;16.80;66.10;;;;;;5014268;28;19952;-88
2022/10/01 07:25:22;;;;;;;;;;;16.90;66.00;;;;;;5027499;28;20016;-90
2022/10/01 07:27:47;;;;;;;;;;;16.90;65.90;;;;;;5012937;28;20009;-87
2022/10/01 07:30:13;;;;;;;;;;;17.00;66.30;;;;;;5033091;28;19940;-90
2022/10/01 07:32:38;;;;;;;;;;;17.00;66.10;;;;;;5014360;28;20275;-87
2022/10/01 07:35:04;;;;;;;;;;;17.00;66.10;;;;;;5032481;28;19924;-89
2022/10/01 07:37:30;;;;;;;;;;;17.00;66.20;;;;;;5032579;28;19952;-89
2022/10/01 07:39:56;;;;;;;;;;;17.10;66.10;;;;;;5016195;28;19956;-88
2022/10/01 07:42:21;;;;;;;;;;;17.10;66.00;;;;;;5011645;28;19921;-87
2022/10/01 07:44:46;;;;;;;;;;;17.20;66.00;;;;;;5030457;28;19925;-88
2022/10/01 07:47:13;;;;;;;;;;;17.20;66.00;;;;;;5034441;28;19921;-89
2022/10/01 07:49:39;;;;;;;;;;;17.20;66.10;;;;;;5009205;28;19924;-88
2022/10/01 07:52:05;;;;;;;;;;;17.20;66.10;;;;;;5032599;28;19932;-87
2022/10/01 07:54:30;;;;;;;;;;;17.30;65.90;;;;;;5030010;28;20439;-89
2022/10/01 07:56:56;;;;;;;;;;;17.30;66.00;;;;;;5029570;28;19924;-90
2022/10/01 07:59:22;;;;;;;;;;;17.30;65.90;;;;;;5014097;28;19925;-89
2022/10/01 08:01:50;;;;;;;;;;;17.30;66.10;;;;;;5030221;28;20340;-88
2022/10/01 08:07:00;;;;;;;;;;;17.40;66.00;;;;;;5025572;28;19955;-89
2022/10/01 08:09:26;;;;;;;;;;;17.40;66.00;;;;;;5009990;28;19957;-87
2022/10/01 08:11:51;;;;;;;;;;;17.40;66.00;;;;;;5024985;28;20012;-88
2022/10/01 08:14:17;;;;;;;;;;;17.40;66.00;;;;;;5014161;28;19948;-87
2022/10/01 08:16:43;;;;;;;;;;;17.40;66.00;;;;;;5028127;28;19936;-87
2022/10/01 08:19:09;;;;;;;;;;;17.50;65.90;;;;;;5029366;28;20359;-87
2022/10/01 08:21:35;;;;;;;;;;;17.50;66.10;;;;;;5028627;28;19951;-90
2022/10/01 08:24:01;;;;;;;;;;;17.70;66.10;;;;;;5029952;28;20364;-88
2022/10/01 08:26:27;;;;;;;;;;;17.70;66.40;;;;;;5012576;28;20000;-87
2022/10/01 08:28:52;;;;;;;;;;;17.80;66.40;;;;;;5029188;28;20007;-87
2022/10/01 08:31:18;;;;;;;;;;;17.90;66.30;;;;;;5029257;28;20360;-86
2022/10/01 08:33:44;;;;;;;;;;;18.10;66.30;;;;;;5013503;28;20327;-88
2022/10/01 08:36:10;;;;;;;;;;;18.20;66.70;;;;;;5012045;28;19921;-85
2022/10/01 08:38:35;;;;;;;;;;;18.40;66.60;;;;;;5010279;28;19913;-87
2022/10/01 08:41:06;;;;;;;;;;;18.50;66.40;;;;;;5030649;28;19964;-87
2022/10/01 08:43:35;;;;;;;;;;;18.60;66.10;;;;;;5035498;28;20296;-87
2022/10/01 08:46:05;;;;;;;;;;;18.70;66.00;;;;;;5026873;28;19929;-87
2022/10/01 08:48:30;;;;;;;;;;;18.80;66.30;;;;;;5017250;28;19919;-86
2022/10/01 08:51:03;;;;;;;;;;;19.00;66.00;;;;;;5028907;28;19921;-86
2022/10/01 08:53:39;;;;;;;;;;;19.10;66.20;;;;;;5028510;28;19956;-87
2022/10/01 08:56:05;;;;;;;;;;;19.30;66.50;;;;;;5001960;28;19917;-87
2022/10/01 08:58:36;;;;;;;;;;;19.50;66.20;;;;;;5033861;28;20003;-87
2022/10/01 09:01:02;;;;;;;;;;;19.70;65.90;;;;;;5014753;28;20026;-86
2022/10/01 09:03:29;;;;;;;;;;;19.80;65.40;;;;;;4994090;28;20388;-87
2022/10/01 09:06:02;;;;;;;;;;;19.80;65.30;;;;;;5003298;28;19932;-86
2022/10/01 09:08:43;;;;;;;;;;;20.00;65.30;;;;;;5000105;28;20357;-87
2022/10/01 09:11:15;;;;;;;;;;;20.00;64.90;;;;;;5023571;28;19984;-87
2022/10/01 09:13:56;;;;;;;;;;;20.10;64.70;;;;;;4996777;28;19948;-86
2022/10/01 09:17:00;;;;;;;;;;;20.00;64.30;;;;;;5021880;28;20008;-87
2022/10/01 09:19:53;;;;;;;;;;;20.10;64.60;;;;;;4967270;28;19926;-86
2022/10/01 09:22:44;;;;;;;;;;;20.10;64.70;;;;;;4960795;28;20462;-86
2022/10/01 09:25:12;;;;;;;;;;;20.40;65.10;;;;;;4985008;28;19929;-86
2022/10/01 09:27:37;;;;;;;;;;;20.50;64.70;;;;;;5024787;28;19909;-86
2022/10/01 09:30:05;;;;;;;;;;;20.60;64.70;;;;;;5006676;28;19921;-89
2022/10/01 09:32:34;;;;;;;;;;;20.70;64.30;;;;;;5027037;28;19909;-88
2022/10/01 09:35:04;;;;;;;;;;;20.80;64.30;;;;;;5014920;28;20385;-89
2022/10/01 09:37:37;;;;;;;;;;;20.80;64.30;;;;;;5028588;28;19909;-89
2022/10/01 09:40:16;;;;;;;;;;;21.00;64.50;;;;;;5009046;28;19918;-89
2022/10/01 09:42:42;;;;;;;;;;;21.00;64.10;;;;;;5009829;28;19910;-90
2022/10/01 09:45:12;;;;;;;;;;;21.10;64.20;;;;;;5012133;28;19929;-89
2022/10/01 09:47:42;;;;;;;;;;;21.10;63.90;;;;;;5030703;28;19970;-88
2022/10/01 09:50:11;;;;;;;;;;;21.10;64.00;;;;;;5029447;28;19925;-87
2022/10/01 09:52:37;;;;;;;;;;;21.20;64.30;;;;;;5014343;28;20641;-90
2022/10/01 09:55:05;;;;;;;;;;;21.20;64.40;;;;;;5028199;28;20257;-88
2022/10/01 09:57:32;;;;;;;;;;;21.30;64.10;;;;;;5026463;28;19917;-89
2022/10/01 10:00:09;;;;;;;;;;;21.40;64.10;;;;;;5025578;28;19971;-88
2022/10/01 10:02:37;;;;;;;;;;;21.50;64.10;;;;;;5024843;28;19917;-86
2022/10/01 10:05:04;;;;;;;;;;;21.50;63.70;;;;;;5005909;28;20517;-87
2022/10/01 10:07:34;;;;;;;;;;;21.50;64.00;;;;;;5027777;28;19914;-90
2022/10/01 10:10:19;;;;;;;;;;;21.70;64.00;;;;;;5009610;28;20360;-88
2022/10/01 10:12:45;;;;;;;;;;;21.70;63.90;;;;;;5008997;28;19991;-89
2022/10/01 10:15:16;;;;;;;;;;;21.80;64.10;;;;;;5026930;28;19977;-90
2022/10/01 10:17:43;;;;;;;;;;;21.90;64.20;;;;;;5027651;28;19949;-90
2022/10/01 10:20:10;;;;;;;;;;;22.00;63.80;;;;;;5009693;28;19925;-90
2022/10/01 10:22:36;;;;;;;;;;;22.10;63.60;;;;;;5007286;28;19917;-89
2022/10/01 10:25:10;;;;;;;;;;;22.20;64.30;;;;;;5028300;28;19936;-89
2022/10/01 10:27:35;;;;;;;;;;;22.40;64.60;;;;;;5031341;28;19913;-88
2022/10/01 10:30:03;;;;;;;;;;;22.70;64.40;;;;;;5030816;28;19925;-87
2022/10/01 10:32:29;;;;;;;;;;;22.80;63.90;;;;;;5036753;28;19920;-89
2022/10/01 10:34:57;;;;;;;;;;;23.00;64.20;;;;;;5031144;28;19921;-89
2022/10/01 10:37:28;;;;;;;;;;;23.30;64.50;;;;;;5032094;28;20641;-90
2022/10/01 10:39:55;;;;;;;;;;;23.80;64.60;;;;;;5028311;28;19928;-89
2022/10/01 10:42:21;;;;;;;;;;;24.20;64.80;;;;;;5031309;28;19920;-89
2022/10/01 10:44:48;;;;;;;;;;;24.60;63.40;;;;;;5012713;28;19933;-87
2022/10/01 10:47:15;;;;;;;;;;;24.90;63.50;;;;;;5012982;28;19913;-87
2022/10/01 10:49:45;;;;;;;;;;;25.20;63.70;;;;;;5012810;28;19921;-90
2022/10/01 10:52:28;;;;;;;;;;;25.70;64.10;;;;;;5030551;28;19917;-90
2022/10/01 10:54:55;;;;;;;;;;;26.10;63.00;;;;;;5012522;28;19962;-89
2022/10/01 10:57:28;;;;;;;;;;;26.30;62.10;;;;;;5012985;28;19917;-90
2022/10/01 10:59:54;;;;;;;;;;;26.20;60.50;;;;;;5013251;28;19943;-89
2022/10/01 11:02:20;;;;;;;;;;;26.00;60.70;;;;;;5012835;28;19913;-87
2022/10/01 11:04:46;;;;;;;;;;;25.90;61.00;;;;;;5030643;28;20379;-87
2022/10/01 11:07:17;;;;;;;;;;;25.80;61.40;;;;;;5012762;28;19924;-90
2022/10/01 11:10:03;;;;;;;;;;;25.80;61.80;;;;;;5008361;28;19921;-87
2022/10/01 11:12:56;;;;;;;;;;;25.70;61.60;;;;;;4975625;28;20304;-87
2022/10/01 11:15:46;;;;;;;;;;;25.60;61.80;;;;;;5026885;28;19945;-87
2022/10/01 11:18:36;;;;;;;;;;;25.50;62.60;;;;;;5031643;28;19917;-87
2022/10/01 11:21:11;;;;;;;;;;;25.40;62.50;;;;;;5011456;28;19968;-87
2022/10/01 11:23:49;;;;;;;;;;;25.30;61.90;;;;;;5024229;28;19917;-87
2022/10/01 11:26:27;;;;;;;;;;;25.20;62.10;;;;;;5012229;28;20436;-87
2022/10/01 11:28:58;;;;;;;;;;;25.30;63.00;;;;;;5030383;28;19921;-86
2022/10/01 11:31:27;;;;;;;;;;;25.60;61.80;;;;;;5045901;28;20361;-87
2022/10/01 11:34:07;;;;;;;;;;;26.20;62.60;;;;;;5039397;28;19923;-87
2022/10/01 11:36:41;;;;;;;;;;;26.80;61.70;;;;;;4993491;28;19982;-88
2022/10/01 11:39:13;;;;;;;;;;;27.00;60.20;;;;;;4995169;28;19921;-90
2022/10/01 11:41:41;;;;;;;;;;;26.80;59.10;;;;;;5020881;28;19913;-87
2022/10/01 11:44:10;;;;;;;;;;;26.40;58.20;;;;;;5030254;28;19917;-88
2022/10/01 11:46:40;;;;;;;;;;;26.10;58.60;;;;;;5015552;28;19964;-89
2022/10/01 11:49:17;;;;;;;;;;;25.80;58.50;;;;;;5033511;28;19928;-91
2022/10/01 11:51:46;;;;;;;;;;;25.70;59.40;;;;;;5002834;28;19913;-90
2022/10/01 11:54:16;;;;;;;;;;;25.90;60.20;;;;;;5015576;28;20359;-90
2022/10/01 11:59:41;;;;;;;;;;;26.40;58.90;;;;;;5030308;28;20292;-90
2022/10/01 12:02:15;;;;;;;;;;;27.10;59.60;;;;;;5012305;28;19913;-89
2022/10/01 12:04:45;;;;;;;;;;;27.70;57.90;;;;;;5012185;28;19925;-90
2022/10/01 12:07:13;;;;;;;;;;;27.80;56.70;;;;;;5011953;28;19913;-88
2022/10/01 12:09:51;;;;;;;;;;;27.50;55.40;;;;;;5030802;28;20008;-89
2022/10/01 12:12:22;;;;;;;;;;;27.30;56.30;;;;;;5012488;28;19917;-90
2022/10/01 12:14:55;;;;;;;;;;;27.10;54.70;;;;;;5030144;28;19917;-91
2022/10/01 12:17:37;;;;;;;;;;;27.00;54.70;;;;;;5012069;28;19909;-89
2022/10/01 12:20:04;;;;;;;;;;;26.80;55.50;;;;;;5009729;28;20054;-89
2022/10/01 12:22:36;;;;;;;;;;;26.50;54.90;;;;;;5024011;28;19936;-90
2022/10/01 12:25:01;;;;;;;;;;;26.20;55.20;;;;;;5024627;28;19933;-89
2022/10/01 12:27:46;;;;;;;;;;;25.90;55.80;;;;;;5006551;28;20268;-89
2022/10/01 12:30:18;;;;;;;;;;;25.70;56.40;;;;;;5011709;28;19967;-89
2022/10/01 12:33:05;;;;;;;;;;;25.30;56.30;;;;;;5010244;28;19974;-90
2022/10/01 12:35:34;;;;;;;;;;;25.20;56.70;;;;;;5013207;28;19917;-90
2022/10/01 12:38:13;;;;;;;;;;;25.20;57.60;;;;;;4999444;28;19914;-89
2022/10/01 12:40:57;;;;;;;;;;;25.20;57.90;;;;;;5018260;28;19921;-91
2022/10/01 12:43:30;;;;;;;;;;;25.20;58.00;;;;;;5000693;28;20603;-89
2022/10/01 12:46:14;;;;;;;;;;;25.20;58.00;;;;;;4994892;28;19925;-89
2022/10/01 12:48:53;;;;;;;;;;;25.30;57.20;;;;;;5005257;28;19920;-89
2022/10/01 12:51:25;;;;;;;;;;;25.50;56.00;;;;;;5004214;28;19959;-90
2022/10/01 12:54:11;;;;;;;;;;;25.80;55.80;;;;;;4993262;28;19910;-89
2022/10/01 12:56:37;;;;;;;;;;;26.30;53.50;;;;;;4952076;28;20440;-90
2022/10/01 12:59:12;;;;;;;;;;;26.70;53.40;;;;;;5002971;28;19917;-90
2022/10/01 13:01:39;;;;;;;;;;;27.00;52.80;;;;;;5024956;28;20372;-90
2022/10/01 13:04:17;;;;;;;;;;;26.90;52.40;;;;;;5012406;28;19910;-89
2022/10/01 13:06:50;;;;;;;;;;;26.70;52.50;;;;;;5026087;28;19913;-90
2022/10/01 13:09:36;;;;;;;;;;;26.20;52.50;;;;;;4993747;28;19916;-91
2022/10/01 13:12:07;;;;;;;;;;;25.80;53.10;;;;;;5013855;28;20392;-90
2022/10/01 13:14:33;;;;;;;;;;;25.50;54.00;;;;;;5017233;28;19921;-89
2022/10/01 13:17:04;;;;;;;;;;;25.20;54.40;;;;;;5025521;28;19917;-87
2022/10/01 13:19:35;;;;;;;;;;;24.90;54.40;;;;;;5010278;28;20476;-86
2022/10/01 13:22:11;;;;;;;;;;;24.80;55.20;;;;;;5009434;28;19913;-86
2022/10/01 13:24:47;;;;;;;;;;;24.70;54.50;;;;;;5022986;28;19925;-87
2022/10/01 13:27:20;;;;;;;;;;;24.60;55.10;;;;;;5026911;28;20299;-90
2022/10/01 13:30:12;;;;;;;;;;;24.60;55.20;;;;;;5023173;28;19925;-90
2022/10/01 13:32:51;;;;;;;;;;;24.60;55.80;;;;;;5025760;28;20074;-89
2022/10/01 13:35:25;;;;;;;;;;;24.80;54.60;;;;;;5025994;28;19922;-89
2022/10/01 13:37:51;;;;;;;;;;;25.00;53.80;;;;;;5023408;28;19917;-88
2022/10/01 13:40:25;;;;;;;;;;;25.20;53.60;;;;;;5009014;28;20071;-90
2022/10/01 13:42:53;;;;;;;;;;;25.50;53.60;;;;;;5018654;28;19931;-88
2022/10/01 13:45:21;;;;;;;;;;;25.80;52.60;;;;;;5024019;28;19924;-87
2022/10/01 13:47:47;;;;;;;;;;;25.90;52.30;;;;;;5027047;28;19940;-86
2022/10/01 13:50:22;;;;;;;;;;;25.40;51.30;;;;;;5027780;28;19913;-86
2022/10/01 13:52:49;;;;;;;;;;;24.20;50.80;;;;;;5027163;28;20055;-87
2022/10/01 13:55:25;;;;;;;;;;;23.20;53.50;;;;;;5030426;28;20676;-87
2022/10/01 13:58:00;;;;;;;;;;;22.40;54.80;;;;;;5028749;28;19921;-86
2022/10/01 14:00:25;;;;;;;;;;;21.60;55.30;;;;;;5008660;28;19920;-86
2022/10/01 14:02:59;;;;;;;;;;;20.80;56.80;;;;;;5035599;28;19925;-87
2022/10/01 14:05:34;;;;;;;;;;;20.30;58.00;;;;;;5029967;28;19932;-86
2022/10/01 14:08:22;;;;;;;;;;;19.90;59.30;;;;;;5031259;28;19951;-86
2022/10/01 14:16:36;;;;;;;;;;;19.40;62.60;;;;;;5027078;28;19949;-86
2022/10/01 14:19:02;;;;;;;;;;;19.50;63.70;;;;;;5031405;28;19917;-86
2022/10/01 14:21:37;;;;;;;;;;;19.60;64.10;;;;;;5009715;28;19917;-86
2022/10/01 14:24:21;;;;;;;;;;;19.70;64.70;;;;;;5028190;28;19925;-88
2022/10/01 14:26:46;;;;;;;;;;;19.70;64.90;;;;;;5010677;28;19928;-87
2022/10/01 14:29:33;;;;;;;;;;;19.70;64.90;;;;;;5010292;28;19921;-86
2022/10/01 14:31:58;;;;;;;;;;;19.70;64.90;;;;;;5031060;28;19965;-88
2022/10/01 14:34:43;;;;;;;;;;;19.70;64.60;;;;;;5031165;28;19995;-88
2022/10/01 14:37:11;;;;;;;;;;;19.70;64.50;;;;;;5029262;28;20010;-88
2022/10/01 14:39:37;;;;;;;;;;;19.50;64.30;;;;;;5031462;28;19921;-88